Time;durP1;ratioP1;P1;durP2;ratioP2;P2;SDS_P1;SDS_P2;PMS_P1;PMS_P2;Temp;Humidity;BMP_temperature;BMP_pressure;BME280_temperature;BME280_humidity;BME280_pressure;Samples;Min_cycle;Max_cycle;Signal;HPM_P1;HPM_P2
2022/07/04 00:00:19;;;;;;;4.47;2.70;;;21.00;91.90;;;;;;5076291;28;20184;-46
2022/07/04 00:02:46;;;;;;;3.30;2.67;;;21.00;91.90;;;;;;5077009;28;20185;-47
2022/07/04 00:05:12;;;;;;;2.40;2.20;;;21.00;91.70;;;;;;5077058;28;20190;-48
2022/07/04 00:07:42;;;;;;;2.60;2.40;;;21.00;91.60;;;;;;5076440;28;20978;-46
2022/07/04 00:10:09;;;;;;;3.60;3.13;;;21.00;91.30;;;;;;5076763;28;20441;-47
2022/07/04 00:12:35;;;;;;;3.23;2.50;;;21.00;91.50;;;;;;5076440;28;20456;-45
2022/07/04 00:15:03;;;;;;;2.77;2.57;;;21.00;91.30;;;;;;5076516;28;20902;-46
2022/07/04 00:17:28;;;;;;;2.90;2.30;;;21.00;91.40;;;;;;5075804;28;20715;-47
2022/07/04 00:19:54;;;;;;;3.73;2.50;;;20.90;91.40;;;;;;5077040;28;20428;-47
2022/07/04 00:22:20;;;;;;;5.40;2.27;;;21.00;91.30;;;;;;5077292;28;20554;-46
2022/07/04 00:24:45;;;;;;;2.90;2.40;;;21.00;91.30;;;;;;5077531;28;20200;-46
2022/07/04 00:27:11;;;;;;;2.63;2.43;;;21.00;91.30;;;;;;5077424;28;20245;-48
2022/07/04 00:29:37;;;;;;;4.87;2.43;;;21.00;91.20;;;;;;5077590;28;20507;-48
2022/07/04 00:32:03;;;;;;;2.40;2.20;;;21.00;91.20;;;;;;5077540;28;20252;-50
2022/07/04 00:34:30;;;;;;;2.47;2.27;;;21.00;91.00;;;;;;5077746;28;20265;-46
2022/07/04 00:36:56;;;;;;;3.63;2.90;;;21.00;91.00;;;;;;5077707;28;20878;-47
2022/07/04 00:39:22;;;;;;;4.40;2.50;;;21.00;90.70;;;;;;5076900;28;20433;-48
2022/07/04 00:41:48;;;;;;;2.50;2.30;;;21.00;90.60;;;;;;5077495;28;20186;-46
2022/07/04 00:44:15;;;;;;;5.87;2.43;;;20.90;90.90;;;;;;5077379;28;20183;-48
2022/07/04 00:46:45;;;;;;;3.70;2.30;;;20.90;90.80;;;;;;5076485;28;20291;-47
2022/07/04 00:49:12;;;;;;;2.70;2.50;;;20.90;91.00;;;;;;5076470;28;20514;-46
2022/07/04 00:51:40;;;;;;;3.33;2.70;;;20.80;90.90;;;;;;5077638;28;20762;-47
2022/07/04 00:54:14;;;;;;;3.27;2.47;;;20.80;90.90;;;;;;5077259;28;20517;-47
2022/07/04 00:56:41;;;;;;;3.07;2.77;;;20.80;91.00;;;;;;5077556;28;20439;-46
2022/07/04 00:59:08;;;;;;;3.30;2.37;;;20.80;91.00;;;;;;5075880;28;20479;-47
2022/07/04 01:01:34;;;;;;;2.70;2.50;;;20.70;91.20;;;;;;5076505;28;20449;-47
2022/07/04 01:04:01;;;;;;;3.60;2.63;;;20.70;91.20;;;;;;5076812;28;20863;-46
2022/07/04 01:06:27;;;;;;;2.80;2.60;;;20.70;91.20;;;;;;5079189;28;20461;-50
2022/07/04 01:08:53;;;;;;;2.93;2.27;;;20.70;90.90;;;;;;5079622;28;20771;-49
2022/07/04 01:11:18;;;;;;;2.87;2.67;;;20.70;91.00;;;;;;5079927;28;20266;-47
2022/07/04 01:13:44;;;;;;;3.00;2.60;;;20.60;90.90;;;;;;5079547;28;20208;-46
2022/07/04 01:16:11;;;;;;;3.63;2.50;;;20.60;91.20;;;;;;5079937;28;20206;-46
2022/07/04 01:18:37;;;;;;;5.33;2.67;;;20.60;91.10;;;;;;5079790;28;20868;-46
2022/07/04 01:21:04;;;;;;;3.03;2.77;;;20.50;91.10;;;;;;5080581;28;20439;-47
2022/07/04 01:23:29;;;;;;;4.17;2.63;;;20.50;91.20;;;;;;5080491;28;20478;-48
2022/07/04 01:25:56;;;;;;;7.57;2.70;;;20.50;91.20;;;;;;5080888;28;20828;-48
2022/07/04 01:28:23;;;;;;;2.33;2.10;;;20.50;91.20;;;;;;5080533;28;20571;-46
2022/07/04 01:30:49;;;;;;;4.50;2.50;;;20.40;91.30;;;;;;5079995;28;20484;-46
2022/07/04 01:33:17;;;;;;;2.60;2.40;;;20.40;91.30;;;;;;5080363;28;20590;-47
2022/07/04 01:35:43;;;;;;;2.90;2.60;;;20.40;91.40;;;;;;5079598;28;20711;-48
2022/07/04 01:38:09;;;;;;;2.70;2.47;;;20.30;91.40;;;;;;5080940;28;20479;-48
2022/07/04 01:40:36;;;;;;;2.80;2.20;;;20.30;91.50;;;;;;5080905;28;20769;-47
2022/07/04 01:43:02;;;;;;;2.80;2.23;;;20.30;91.40;;;;;;5080757;28;20327;-47
2022/07/04 01:45:27;;;;;;;4.77;3.10;;;20.40;91.50;;;;;;5080787;28;20455;-47
2022/07/04 01:47:54;;;;;;;2.60;2.23;;;20.40;91.40;;;;;;5080927;28;20196;-46
2022/07/04 01:50:20;;;;;;;3.77;2.77;;;20.40;91.40;;;;;;5080371;28;20215;-46
2022/07/04 01:52:46;;;;;;;3.10;2.80;;;20.40;91.20;;;;;;5080412;28;20773;-49
2022/07/04 01:55:12;;;;;;;4.00;2.80;;;20.50;91.20;;;;;;5080304;28;20175;-47
2022/07/04 01:57:39;;;;;;;2.53;2.33;;;20.50;91.00;;;;;;5080507;28;20743;-49
2022/07/04 02:02:51;;;;;;;2.90;2.60;;;20.40;91.10;;;;;;5080268;28;20957;-46
2022/07/04 02:05:17;;;;;;;3.00;2.57;;;20.40;90.80;;;;;;5080375;28;20414;-49
2022/07/04 02:07:43;;;;;;;2.70;2.50;;;20.40;91.00;;;;;;5080382;28;20421;-50
2022/07/04 02:10:10;;;;;;;3.40;2.40;;;20.40;90.80;;;;;;5080116;28;20447;-48
2022/07/04 02:15:20;;;;;;;2.57;2.37;;;20.40;91.00;;;;;;5078228;28;20463;-49
2022/07/04 02:17:45;;;;;;;3.00;2.67;;;20.40;91.20;;;;;;5080153;28;21050;-47
2022/07/04 02:20:11;;;;;;;3.23;2.93;;;20.40;91.00;;;;;;5079545;28;20237;-46
2022/07/04 02:22:37;;;;;;;3.70;2.67;;;20.30;91.10;;;;;;5080269;28;20224;-46
2022/07/04 02:25:04;;;;;;;4.53;3.00;;;20.30;91.10;;;;;;5080164;28;20494;-47
2022/07/04 02:27:29;;;;;;;3.03;2.30;;;20.30;91.10;;;;;;5080348;28;20869;-48
2022/07/04 02:29:55;;;;;;;3.03;2.57;;;20.30;91.10;;;;;;5079268;28;20405;-46
2022/07/04 02:32:21;;;;;;;3.03;2.37;;;20.30;91.20;;;;;;5078544;28;20238;-47
2022/07/04 02:34:47;;;;;;;2.73;2.43;;;20.30;91.10;;;;;;5079728;28;20180;-48
2022/07/04 02:37:13;;;;;;;3.10;2.73;;;20.30;91.10;;;;;;5082523;28;20574;-48
2022/07/04 02:39:38;;;;;;;3.90;2.33;;;20.30;91.00;;;;;;5088620;28;20183;-48
2022/07/04 02:42:05;;;;;;;2.87;2.57;;;20.30;91.00;;;;;;5092590;28;20433;-47
2022/07/04 02:44:30;;;;;;;6.13;2.63;;;20.30;91.10;;;;;;5078408;28;20180;-48
2022/07/04 02:46:56;;;;;;;3.03;2.73;;;20.30;91.10;;;;;;5085041;28;20977;-48
2022/07/04 02:49:22;;;;;;;3.10;2.47;;;20.30;91.10;;;;;;5081693;28;20633;-48
2022/07/04 02:51:48;;;;;;;3.73;2.30;;;20.30;91.10;;;;;;5077443;28;20213;-48
2022/07/04 02:54:15;;;;;;;2.97;2.67;;;20.30;91.10;;;;;;5077817;28;21020;-50
2022/07/04 02:56:41;;;;;;;4.27;2.53;;;20.30;91.10;;;;;;5087794;28;20858;-48
2022/07/04 02:59:07;;;;;;;2.97;2.20;;;20.20;91.20;;;;;;5077058;28;20465;-48
2022/07/04 03:01:33;;;;;;;2.93;2.70;;;20.20;91.30;;;;;;5076282;28;20178;-46
2022/07/04 03:03:59;;;;;;;3.00;2.80;;;20.10;91.30;;;;;;5075350;28;20840;-48
2022/07/04 03:06:25;;;;;;;3.70;2.70;;;20.10;91.40;;;;;;5075056;28;20431;-47
2022/07/04 03:08:52;;;;;;;3.23;2.63;;;20.10;91.50;;;;;;5074496;28;20185;-47
2022/07/04 03:11:19;;;;;;;4.30;2.90;;;20.00;91.80;;;;;;5075040;28;20487;-47
2022/07/04 03:13:45;;;;;;;3.00;2.70;;;20.00;91.70;;;;;;5075574;28;20494;-46
2022/07/04 03:16:11;;;;;;;3.60;2.47;;;19.90;91.80;;;;;;5077478;28;20434;-46
2022/07/04 03:18:37;;;;;;;4.80;3.07;;;19.90;91.60;;;;;;5078902;28;20195;-47
2022/07/04 03:21:05;;;;;;;3.53;2.60;;;19.90;91.70;;;;;;5078513;28;20843;-47
2022/07/04 03:23:32;;;;;;;3.33;2.70;;;19.90;91.70;;;;;;5078788;28;20408;-48
2022/07/04 03:25:59;;;;;;;4.87;2.50;;;19.90;91.70;;;;;;5077917;28;20440;-49
2022/07/04 03:28:25;;;;;;;5.80;2.80;;;19.80;91.90;;;;;;5077158;28;20819;-46
2022/07/04 03:30:50;;;;;;;3.87;2.20;;;19.80;91.70;;;;;;5076880;28;20877;-46
2022/07/04 03:33:16;;;;;;;2.93;2.60;;;19.70;91.90;;;;;;5077079;28;20486;-47
2022/07/04 03:35:42;;;;;;;3.70;2.80;;;19.70;91.90;;;;;;5077265;28;20253;-47
2022/07/04 03:38:07;;;;;;;3.40;2.60;;;19.70;92.10;;;;;;5076758;28;20187;-48
2022/07/04 03:40:35;;;;;;;3.10;2.67;;;19.70;92.00;;;;;;5075706;28;20162;-47
2022/07/04 03:43:01;;;;;;;2.87;2.50;;;19.70;91.90;;;;;;5077823;28;20166;-47
2022/07/04 03:45:27;;;;;;;4.57;3.10;;;19.80;91.90;;;;;;5077575;28;20430;-47
2022/07/04 03:47:53;;;;;;;3.43;2.20;;;19.80;91.90;;;;;;5077020;28;20422;-48
2022/07/04 03:50:19;;;;;;;3.33;2.80;;;19.80;91.90;;;;;;5077029;28;20177;-45
2022/07/04 03:52:45;;;;;;;3.50;3.20;;;19.80;91.80;;;;;;5076833;28;20205;-48
2022/07/04 03:55:11;;;;;;;2.93;2.63;;;19.80;91.80;;;;;;5077310;28;20171;-47
2022/07/04 03:57:36;;;;;;;4.33;2.93;;;19.80;91.70;;;;;;5076451;28;20260;-47
2022/07/04 04:00:03;;;;;;;3.10;2.47;;;19.80;91.70;;;;;;5075768;28;20519;-46
2022/07/04 04:02:29;;;;;;;2.30;2.10;;;19.80;91.70;;;;;;5075776;28;20496;-49
2022/07/04 04:07:39;;;;;;;3.50;2.30;;;19.80;91.50;;;;;;5072143;28;20185;-46
2022/07/04 04:10:05;;;;;;;4.87;2.60;;;19.90;91.60;;;;;;5072873;28;20840;-47
2022/07/04 04:12:31;;;;;;;3.37;3.00;;;19.90;91.60;;;;;;5073766;28;20206;-49
2022/07/04 04:14:57;;;;;;;4.77;2.63;;;19.90;91.70;;;;;;5074606;28;20419;-46
2022/07/04 04:17:22;;;;;;;2.37;2.17;;;20.00;91.20;;;;;;5073502;28;20185;-47
2022/07/04 04:19:48;;;;;;;5.57;2.60;;;20.00;91.00;;;;;;5073733;28;20269;-47
2022/07/04 04:22:14;;;;;;;4.10;2.47;;;19.90;91.00;;;;;;5076077;28;20191;-49
2022/07/04 04:24:39;;;;;;;2.60;2.17;;;19.80;91.00;;;;;;5075545;28;20175;-47
2022/07/04 04:27:05;;;;;;;3.27;2.43;;;19.80;91.50;;;;;;5075584;28;20173;-47
2022/07/04 04:29:31;;;;;;;3.40;2.20;;;19.80;91.20;;;;;;5076102;28;20425;-47
2022/07/04 04:31:57;;;;;;;3.53;2.40;;;19.90;91.10;;;;;;5075336;28;20551;-50
2022/07/04 04:34:22;;;;;;;2.77;2.50;;;19.90;91.00;;;;;;5075332;28;20181;-50
2022/07/04 04:36:48;;;;;;;2.50;2.30;;;20.00;90.90;;;;;;5073977;28;20231;-51
2022/07/04 04:39:14;;;;;;;2.87;2.30;;;20.00;91.00;;;;;;5073381;28;20185;-54
2022/07/04 04:41:40;;;;;;;3.00;2.60;;;20.00;90.60;;;;;;5073421;28;20179;-52
2022/07/04 04:44:06;;;;;;;3.97;2.83;;;20.00;90.30;;;;;;5072892;28;20171;-51
2022/07/04 04:46:32;;;;;;;3.13;2.40;;;20.00;90.50;;;;;;5073234;28;20439;-49
2022/07/04 04:48:57;;;;;;;4.90;2.60;;;20.00;90.50;;;;;;5073609;28;20423;-50
2022/07/04 04:51:23;;;;;;;3.73;2.33;;;20.00;90.60;;;;;;5074052;28;20799;-49
2022/07/04 04:53:49;;;;;;;3.67;2.40;;;19.90;90.50;;;;;;5075616;28;20174;-50
2022/07/04 04:56:14;;;;;;;3.90;2.53;;;20.00;90.80;;;;;;5073450;28;20185;-50
2022/07/04 04:58:40;;;;;;;2.97;2.30;;;20.00;90.60;;;;;;5072932;28;20201;-49
2022/07/04 05:01:06;;;;;;;3.20;2.60;;;20.10;90.60;;;;;;5069675;28;20174;-51
2022/07/04 05:03:31;;;;;;;3.40;2.47;;;20.20;90.40;;;;;;5067087;28;20216;-51
2022/07/04 05:05:57;;;;;;;4.83;2.80;;;20.30;90.40;;;;;;5067397;28;20171;-49
2022/07/04 05:08:27;;;;;;;5.67;3.63;;;20.30;90.20;;;;;;5068989;28;20190;-48
2022/07/04 05:10:54;;;;;;;2.70;2.20;;;20.30;90.20;;;;;;5068067;28;20416;-50
2022/07/04 05:13:20;;;;;;;2.73;2.27;;;20.30;90.10;;;;;;5068495;28;20543;-49
2022/07/04 05:15:46;;;;;;;3.43;2.53;;;20.40;90.00;;;;;;5070198;28;20856;-49
2022/07/04 05:18:12;;;;;;;6.27;3.37;;;20.30;89.60;;;;;;5073151;28;20684;-51
2022/07/04 05:20:39;;;;;;;2.70;2.47;;;20.30;89.00;;;;;;5072205;28;20457;-50
2022/07/04 05:23:05;;;;;;;5.40;3.33;;;20.30;89.30;;;;;;5071458;28;20510;-50
2022/07/04 05:25:32;;;;;;;2.87;2.43;;;20.30;89.50;;;;;;5068771;28;20446;-50
2022/07/04 05:27:58;;;;;;;3.67;2.40;;;20.30;89.50;;;;;;5067320;28;20461;-50
2022/07/04 05:30:23;;;;;;;3.87;2.60;;;20.40;89.20;;;;;;5067324;28;20840;-49
2022/07/04 05:32:49;;;;;;;2.93;2.60;;;20.40;89.00;;;;;;5070297;28;20484;-47
2022/07/04 05:35:15;;;;;;;2.80;2.20;;;20.40;88.70;;;;;;5072840;28;20216;-50
2022/07/04 05:37:40;;;;;;;3.30;2.40;;;20.40;88.60;;;;;;5071908;28;20220;-50
2022/07/04 05:40:06;;;;;;;3.00;2.67;;;20.40;88.40;;;;;;5070938;28;20203;-53
2022/07/04 05:42:34;;;;;;;3.10;2.63;;;20.50;88.70;;;;;;5070435;28;20502;-51
2022/07/04 05:45:00;;;;;;;2.80;2.50;;;20.50;88.10;;;;;;5069147;28;20980;-48
2022/07/04 05:47:26;;;;;;;3.80;2.50;;;20.60;87.50;;;;;;5068373;28;20417;-51
2022/07/04 05:49:52;;;;;;;2.63;2.23;;;20.60;87.70;;;;;;5069017;28;20224;-48
2022/07/04 05:52:18;;;;;;;4.03;2.10;;;20.60;87.70;;;;;;5070231;28;20464;-51
2022/07/04 05:54:43;;;;;;;2.90;2.57;;;20.70;87.60;;;;;;5073019;28;20252;-49
2022/07/04 05:57:09;;;;;;;3.20;2.40;;;20.60;87.80;;;;;;5073715;28;20311;-49
2022/07/04 05:59:35;;;;;;;3.50;2.57;;;20.70;87.90;;;;;;5075392;28;20596;-53
2022/07/04 06:02:00;;;;;;;2.40;2.20;;;20.80;87.10;;;;;;5074804;28;20176;-53
2022/07/04 06:04:26;;;;;;;2.53;2.33;;;20.90;87.30;;;;;;5075358;28;20446;-50
2022/07/04 06:06:53;;;;;;;3.07;2.10;;;21.00;86.60;;;;;;5074415;28;20240;-52
2022/07/04 06:09:18;;;;;;;3.30;2.10;;;21.10;86.80;;;;;;5075458;28;20187;-52
2022/07/04 06:11:44;;;;;;;3.50;2.37;;;21.20;86.50;;;;;;5076068;28;20472;-50
2022/07/04 06:14:10;;;;;;;3.43;2.73;;;21.30;85.80;;;;;;5074843;28;20185;-49
2022/07/04 06:16:35;;;;;;;4.60;2.40;;;21.30;85.70;;;;;;5078064;28;20425;-53
2022/07/04 06:19:01;;;;;;;3.00;2.20;;;21.40;85.80;;;;;;5078050;28;20185;-52
2022/07/04 06:21:27;;;;;;;2.53;2.33;;;21.40;85.40;;;;;;5076493;28;20264;-50
2022/07/04 06:23:53;;;;;;;2.50;1.70;;;21.50;85.50;;;;;;5076926;28;20216;-50
2022/07/04 06:26:18;;;;;;;2.50;2.30;;;21.60;85.30;;;;;;5073309;28;20177;-52
2022/07/04 06:28:44;;;;;;;2.50;2.30;;;21.60;85.10;;;;;;5075499;28;20618;-49
2022/07/04 06:31:11;;;;;;;2.70;2.50;;;21.70;84.80;;;;;;5075011;28;20175;-50
2022/07/04 06:35:44;;;;;;;3.00;2.70;;;21.80;84.20;;;;;;5074130;28;20177;-51
2022/07/04 06:36:22;;;;;;;2.97;2.20;;;22.00;83.60;;;;;;5074918;28;20431;-51
2022/07/04 06:38:48;;;;;;;2.70;2.50;;;22.10;82.60;;;;;;5092254;28;20466;-50
2022/07/04 06:41:14;;;;;;;2.37;2.17;;;22.20;82.60;;;;;;5074484;28;20257;-49
2022/07/04 06:43:40;;;;;;;2.70;2.47;;;22.20;82.70;;;;;;5089038;28;20430;-51
2022/07/04 06:46:05;;;;;;;4.27;2.70;;;22.30;82.00;;;;;;5089490;28;20217;-51
2022/07/04 06:48:31;;;;;;;2.60;2.10;;;22.40;81.50;;;;;;5090136;28;20178;-53
2022/07/04 06:50:57;;;;;;;2.83;2.40;;;22.40;81.80;;;;;;5075409;28;20196;-51
2022/07/04 06:53:22;;;;;;;3.20;2.73;;;22.50;82.00;;;;;;5088657;28;20471;-53
2022/07/04 06:55:48;;;;;;;3.00;2.23;;;22.70;81.50;;;;;;5083569;28;20204;-50
2022/07/04 06:58:14;;;;;;;5.63;2.37;;;22.70;81.10;;;;;;5092220;28;20207;-50
2022/07/04 07:00:41;;;;;;;3.30;2.20;;;22.80;80.70;;;;;;5093517;28;20294;-53
2022/07/04 07:03:07;;;;;;;4.17;2.37;;;22.90;80.50;;;;;;5090818;28;20421;-51
2022/07/04 07:05:36;;;;;;;3.43;2.60;;;23.00;81.10;;;;;;5095213;28;20717;-50
2022/07/04 07:08:03;;;;;;;2.43;2.20;;;23.10;80.90;;;;;;5095586;28;20418;-50
2022/07/04 07:10:28;;;;;;;2.60;2.20;;;23.30;80.60;;;;;;5095691;28;20682;-50
2022/07/04 07:12:54;;;;;;;4.00;2.47;;;23.50;80.90;;;;;;5094209;28;20474;-51
2022/07/04 07:15:20;;;;;;;2.40;2.20;;;23.60;80.00;;;;;;5096103;28;20214;-52
2022/07/04 07:17:46;;;;;;;3.20;2.00;;;23.70;78.70;;;;;;5095800;28;20657;-51
2022/07/04 07:20:13;;;;;;;3.00;2.10;;;23.80;79.00;;;;;;5095401;28;20171;-54
2022/07/04 07:22:40;;;;;;;2.80;2.50;;;23.90;78.70;;;;;;5095626;28;20418;-50
2022/07/04 07:25:06;;;;;;;2.63;2.23;;;24.00;78.80;;;;;;5092927;28;20479;-52
2022/07/04 07:27:32;;;;;;;2.50;2.30;;;24.00;78.90;;;;;;5092358;28;20433;-50
2022/07/04 07:29:58;;;;;;;4.03;2.40;;;24.10;78.10;;;;;;5095075;28;20758;-51
2022/07/04 07:32:23;;;;;;;3.03;2.73;;;24.10;78.00;;;;;;5093685;28;20524;-51
2022/07/04 07:34:49;;;;;;;2.33;2.10;;;24.20;78.40;;;;;;5095018;28;20178;-51
2022/07/04 07:37:17;;;;;;;3.73;2.23;;;24.30;77.80;;;;;;5095683;28;20449;-51
2022/07/04 07:39:43;;;;;;;2.97;2.37;;;24.40;77.70;;;;;;5095021;28;20243;-53
2022/07/04 07:42:09;;;;;;;2.57;2.37;;;24.50;77.70;;;;;;5095685;28;20506;-50
2022/07/04 07:44:34;;;;;;;2.87;2.67;;;24.60;77.50;;;;;;5095216;28;20554;-49
2022/07/04 07:47:00;;;;;;;5.70;2.83;;;24.60;77.70;;;;;;5094732;28;20573;-49
2022/07/04 07:49:26;;;;;;;2.80;2.53;;;24.70;77.90;;;;;;5093899;28;20206;-49
2022/07/04 07:51:52;;;;;;;3.90;2.37;;;24.80;77.90;;;;;;5095461;28;20466;-52
2022/07/04 07:54:18;;;;;;;2.50;2.30;;;24.90;77.20;;;;;;5094345;28;20678;-49
2022/07/04 07:56:44;;;;;;;2.70;2.50;;;25.00;76.70;;;;;;5096579;28;20433;-51
2022/07/04 07:59:10;;;;;;;3.97;2.30;;;25.10;76.30;;;;;;5095594;28;20462;-49
2022/07/04 08:01:35;;;;;;;3.10;2.67;;;25.10;75.40;;;;;;5095898;28;20429;-52
2022/07/04 08:06:45;;;;;;;2.53;2.33;;;25.30;75.40;;;;;;5094023;28;20610;-51
2022/07/04 08:09:11;;;;;;;3.07;2.77;;;25.40;76.10;;;;;;5095297;28;20420;-52
2022/07/04 08:11:37;;;;;;;5.30;3.00;;;25.40;75.20;;;;;;5095360;28;20218;-53
2022/07/04 08:14:03;;;;;;;3.10;2.87;;;25.50;75.70;;;;;;5091775;28;20568;-48
2022/07/04 08:16:28;;;;;;;3.00;2.80;;;25.50;75.90;;;;;;5092664;28;20213;-50
2022/07/04 08:18:54;;;;;;;3.50;2.87;;;25.40;75.40;;;;;;5091906;28;20541;-50
2022/07/04 08:21:20;;;;;;;3.23;2.67;;;25.40;76.40;;;;;;5093240;28;20168;-52
2022/07/04 08:23:45;;;;;;;5.17;2.70;;;25.40;76.40;;;;;;5093100;28;20630;-50
2022/07/04 08:26:11;;;;;;;3.90;3.03;;;25.40;75.40;;;;;;5093341;28;20517;-51
2022/07/04 08:28:37;;;;;;;3.00;2.63;;;25.30;74.10;;;;;;5095857;28;20599;-50
2022/07/04 08:31:04;;;;;;;3.30;2.73;;;25.10;74.40;;;;;;5092180;28;20298;-51
2022/07/04 08:33:29;;;;;;;3.60;3.20;;;25.10;75.50;;;;;;5094797;28;20236;-51
2022/07/04 08:35:56;;;;;;;5.13;3.30;;;25.10;75.80;;;;;;5094110;28;20524;-52
2022/07/04 08:38:22;;;;;;;7.70;3.83;;;24.90;75.40;;;;;;5091701;28;20569;-50
2022/07/04 08:40:50;;;;;;;12.10;4.07;;;25.00;76.00;;;;;;5089913;28;20422;-51
2022/07/04 08:43:16;;;;;;;3.30;2.70;;;25.10;76.80;;;;;;5090814;28;20577;-50
2022/07/04 08:45:47;;;;;;;4.20;3.07;;;25.20;75.50;;;;;;5073313;28;20732;-49
2022/07/04 08:48:13;;;;;;;3.97;3.57;;;25.10;74.30;;;;;;5088659;28;20489;-49
2022/07/04 08:50:44;;;;;;;7.13;3.03;;;25.10;74.40;;;;;;5088849;28;20441;-50
2022/07/04 08:53:19;;;;;;;4.63;2.67;;;25.10;75.00;;;;;;5091512;28;20492;-50
2022/07/04 08:58:30;;;;;;;8.20;3.30;;;25.30;74.20;;;;;;5090599;28;20437;-49
2022/07/04 09:00:57;;;;;;;4.57;3.57;;;25.30;73.20;;;;;;5089665;28;20850;-50
2022/07/04 09:03:24;;;;;;;3.73;3.27;;;25.30;72.40;;;;;;5092166;28;20213;-50
2022/07/04 09:05:50;;;;;;;2.77;2.50;;;25.40;72.30;;;;;;5091307;28;20477;-51
2022/07/04 09:08:16;;;;;;;3.20;2.73;;;25.60;72.80;;;;;;5093385;28;20704;-50
2022/07/04 09:10:42;;;;;;;3.00;2.80;;;25.80;71.60;;;;;;5092209;28;20688;-52
2022/07/04 09:13:09;;;;;;;6.00;3.27;;;26.00;71.60;;;;;;5090858;28;20531;-52
2022/07/04 09:15:35;;;;;;;6.20;3.27;;;26.20;72.60;;;;;;5092482;28;20180;-52
2022/07/04 09:18:02;;;;;;;3.33;3.03;;;26.40;71.00;;;;;;5093865;28;20886;-52
2022/07/04 09:20:30;;;;;;;3.43;2.63;;;26.60;71.30;;;;;;5092477;28;20419;-49
2022/07/04 09:22:56;;;;;;;3.10;2.80;;;26.60;69.70;;;;;;5092909;28;20462;-49
2022/07/04 09:25:23;;;;;;;3.30;2.77;;;26.80;69.10;;;;;;5096112;28;20682;-50
2022/07/04 09:27:56;;;;;;;3.77;3.43;;;27.10;70.90;;;;;;5098710;28;20422;-49
2022/07/04 09:30:25;;;;;;;3.73;3.00;;;27.70;68.90;;;;;;5097729;28;20446;-51
2022/07/04 09:32:59;;;;;;;3.93;3.13;;;28.00;64.30;;;;;;5093777;28;20481;-53
2022/07/04 09:35:27;;;;;;;4.33;3.20;;;28.20;65.60;;;;;;5096576;28;20414;-50
2022/07/04 09:37:55;;;;;;;4.20;2.80;;;28.70;64.20;;;;;;5095996;28;20476;-51
2022/07/04 09:40:30;;;;;;;4.23;3.13;;;29.10;63.80;;;;;;5095792;28;20403;-50
2022/07/04 09:42:58;;;;;;;3.63;3.30;;;29.40;60.30;;;;;;5097308;28;20415;-52
2022/07/04 09:45:25;;;;;;;3.13;2.30;;;29.70;59.30;;;;;;5095322;28;20473;-49
2022/07/04 09:47:55;;;;;;;3.53;2.97;;;29.90;58.90;;;;;;5095488;28;20442;-50
2022/07/04 09:50:21;;;;;;;5.93;2.90;;;30.10;58.70;;;;;;5097734;28;20835;-52
2022/07/04 09:52:50;;;;;;;4.50;3.30;;;30.20;56.60;;;;;;5096578;28;20462;-54
2022/07/04 09:55:35;;;;;;;5.90;3.40;;;30.30;55.70;;;;;;5096899;28;20412;-52
2022/07/04 09:58:03;;;;;;;4.93;2.83;;;30.20;55.20;;;;;;5098646;28;20799;-50
2022/07/04 10:00:39;;;;;;;4.43;3.17;;;30.40;55.60;;;;;;5097649;28;20418;-50
2022/07/04 10:03:21;;;;;;;3.80;2.67;;;30.30;53.10;;;;;;5094995;28;20389;-50
2022/07/04 10:06:02;;;;;;;2.53;2.30;;;30.30;54.50;;;;;;5093291;28;20759;-49
2022/07/04 10:08:27;;;;;;;3.10;2.80;;;30.50;53.40;;;;;;5092687;28;20437;-49
2022/07/04 10:10:57;;;;;;;3.50;3.20;;;30.60;54.30;;;;;;5090616;28;20433;-49
2022/07/04 10:13:23;;;;;;;4.37;2.80;;;30.90;53.20;;;;;;5092031;28;20207;-50
2022/07/04 10:15:49;;;;;;;3.07;2.67;;;31.30;53.00;;;;;;5093952;28;20426;-50
2022/07/04 10:18:21;;;;;;;3.87;3.13;;;31.70;52.90;;;;;;5096372;28;20507;-49
2022/07/04 10:20:48;;;;;;;3.03;2.77;;;31.90;53.40;;;;;;5094781;28;20425;-50
2022/07/04 10:23:15;;;;;;;3.77;2.90;;;32.10;50.60;;;;;;5095035;28;20471;-50
2022/07/04 10:25:41;;;;;;;6.77;2.87;;;31.70;49.00;;;;;;5095552;28;20401;-52
2022/07/04 10:28:08;;;;;;;4.20;3.13;;;30.90;48.90;;;;;;5093158;28;20718;-50
2022/07/04 10:30:35;;;;;;;3.30;3.10;;;30.20;49.90;;;;;;5094954;28;20432;-52
2022/07/04 10:33:04;;;;;;;2.80;2.60;;;30.20;51.80;;;;;;5096039;28;20486;-50
2022/07/04 10:35:48;;;;;;;3.53;3.23;;;30.40;51.20;;;;;;5095488;28;20412;-50
2022/07/04 10:38:16;;;;;;;4.17;2.60;;;30.80;51.70;;;;;;5095935;28;20808;-47
2022/07/04 10:41:02;;;;;;;4.47;3.00;;;31.30;50.20;;;;;;5083922;28;20426;-47
2022/07/04 10:43:31;;;;;;;3.90;2.90;;;31.70;48.70;;;;;;5095769;28;20426;-45
2022/07/04 10:46:26;;;;;;;5.00;2.70;;;32.00;47.90;;;;;;5095059;28;20470;-46
2022/07/04 10:49:00;;;;;;;3.63;3.33;;;32.20;48.60;;;;;;5058996;28;20414;-45
2022/07/04 10:51:44;;;;;;;3.90;2.70;;;32.70;48.70;;;;;;5094778;28;20412;-44
2022/07/04 10:54:31;;;;;;;2.80;2.60;;;33.00;46.20;;;;;;5097337;28;20861;-45
2022/07/04 10:56:56;;;;;;;3.30;3.00;;;32.90;45.30;;;;;;5080119;28;20863;-45
2022/07/04 10:59:27;;;;;;;3.43;3.17;;;32.00;45.40;;;;;;5072598;28;20393;-49
2022/07/04 11:02:03;;;;;;;3.60;3.30;;;31.20;47.70;;;;;;5080596;28;20450;-44
2022/07/04 11:04:47;;;;;;;3.50;3.00;;;31.00;49.00;;;;;;5091190;28;21081;-47
2022/07/04 11:07:36;;;;;;;3.30;3.00;;;31.20;49.40;;;;;;5095517;28;20425;-45
2022/07/04 11:10:22;;;;;;;5.03;2.80;;;31.10;49.10;;;;;;5082638;28;20441;-46
2022/07/04 11:12:54;;;;;;;6.40;3.37;;;30.80;48.60;;;;;;5096262;28;20470;-44
2022/07/04 11:15:32;;;;;;;3.93;3.20;;;30.90;49.90;;;;;;5094665;28;20421;-45
2022/07/04 11:18:01;;;;;;;5.10;3.43;;;31.00;49.40;;;;;;5096502;28;20691;-44
2022/07/04 11:20:33;;;;;;;3.63;2.83;;;31.00;49.60;;;;;;5094851;28;20697;-45
2022/07/04 11:23:13;;;;;;;3.80;2.67;;;30.80;49.00;;;;;;5096263;28;20504;-44
2022/07/04 11:25:41;;;;;;;5.23;4.37;;;30.50;49.20;;;;;;5096347;28;20439;-45
2022/07/04 11:28:28;;;;;;;4.40;2.87;;;30.10;51.00;;;;;;5097738;28;20440;-45
2022/07/04 11:31:00;;;;;;;3.20;3.00;;;29.80;51.20;;;;;;5095996;28;20418;-45
2022/07/04 11:33:28;;;;;;;5.20;3.30;;;29.60;51.80;;;;;;5096117;28;20495;-44
2022/07/04 11:36:14;;;;;;;5.37;2.73;;;30.20;53.30;;;;;;5096761;28;20487;-44
2022/07/04 11:38:55;;;;;;;3.93;3.40;;;31.10;50.80;;;;;;5092459;28;20954;-44
2022/07/04 11:47:15;;;;;;;8.57;3.40;;;33.70;49.00;;;;;;5080411;28;20484;-46
2022/07/04 11:49:44;;;;;;;4.73;2.67;;;34.40;46.10;;;;;;5074178;28;20509;-44
2022/07/04 11:52:11;;;;;;;3.20;2.90;;;34.90;45.70;;;;;;5073365;28;20474;-47
2022/07/04 11:54:39;;;;;;;2.77;2.57;;;35.40;45.40;;;;;;5054657;28;20792;-45
2022/07/04 11:57:37;;;;;;;14.83;4.83;;;35.60;44.90;;;;;;5069689;28;20588;-46
2022/07/04 12:00:09;;;;;;;6.53;3.13;;;36.00;44.20;;;;;;5060166;28;20582;-47
2022/07/04 12:02:36;;;;;;;3.23;2.67;;;36.40;42.50;;;;;;5071005;28;20445;-45
2022/07/04 12:05:04;;;;;;;3.60;3.03;;;36.50;40.20;;;;;;5071793;28;20421;-45
2022/07/04 12:07:34;;;;;;;3.10;2.90;;;36.00;40.00;;;;;;5069712;28;20836;-47
2022/07/04 12:10:27;;;;;;;11.20;3.10;;;35.90;40.10;;;;;;5069618;28;20847;-47
2022/07/04 12:12:56;;;;;;;5.53;3.30;;;35.70;41.60;;;;;;5067003;28;20487;-46
2022/07/04 12:15:23;;;;;;;3.90;3.60;;;35.70;42.80;;;;;;5081947;28;20419;-46
2022/07/04 12:17:54;;;;;;;5.60;3.10;;;36.00;41.00;;;;;;5091403;28;20433;-48
2022/07/04 12:20:22;;;;;;;3.90;3.13;;;36.10;41.20;;;;;;5088605;28;20440;-46
2022/07/04 12:22:53;;;;;;;4.03;3.20;;;36.60;41.40;;;;;;5092698;28;20467;-47
2022/07/04 12:25:21;;;;;;;4.73;3.60;;;36.70;39.90;;;;;;5092438;28;20480;-46
2022/07/04 12:27:59;;;;;;;3.03;2.73;;;36.10;40.10;;;;;;5093377;28;20840;-45
2022/07/04 12:30:27;;;;;;;9.73;4.27;;;35.60;41.90;;;;;;5090926;28;20745;-47
2022/07/04 12:32:57;;;;;;;3.80;2.93;;;35.60;41.30;;;;;;5086880;28;20539;-46
2022/07/04 12:35:38;;;;;;;6.00;2.53;;;35.40;41.30;;;;;;5090038;28;20420;-46
2022/07/04 12:38:09;;;;;;;2.80;2.60;;;35.60;41.80;;;;;;5093265;28;20402;-47
2022/07/04 12:40:36;;;;;;;2.70;2.50;;;35.70;41.60;;;;;;5091291;28;20689;-48
2022/07/04 12:43:02;;;;;;;6.00;2.80;;;35.50;40.60;;;;;;5072577;28;20431;-45
2022/07/04 12:45:46;;;;;;;2.90;2.70;;;34.90;40.80;;;;;;5091153;28;20400;-45
2022/07/04 12:48:18;;;;;;;3.70;2.97;;;34.30;42.30;;;;;;5091527;28;20428;-45
2022/07/04 12:50:43;;;;;;;3.93;3.30;;;33.80;42.00;;;;;;5091359;28;20415;-46
2022/07/04 12:53:09;;;;;;;3.53;3.27;;;33.40;42.00;;;;;;5093388;28;20875;-45
2022/07/04 12:55:38;;;;;;;3.03;2.63;;;33.20;42.70;;;;;;5093294;28;20180;-44
2022/07/04 12:58:04;;;;;;;3.17;2.87;;;33.30;43.70;;;;;;5091509;28;20180;-47
2022/07/04 13:00:30;;;;;;;2.60;2.40;;;33.80;40.90;;;;;;5097747;28;20478;-47
2022/07/04 13:02:56;;;;;;;3.20;2.40;;;33.90;41.20;;;;;;5101562;28;20596;-45
2022/07/04 13:05:21;;;;;;;2.80;2.60;;;34.30;40.90;;;;;;5099659;28;20186;-48
2022/07/04 13:07:47;;;;;;;3.10;2.80;;;34.80;40.00;;;;;;5100078;28;20445;-46